createdAt,value
2018-12-17T00:01:39.231Z,48.17
2018-12-17T00:04:07.452Z,55.47
2018-12-17T00:06:35.636Z,53.73
2018-12-17T00:09:05.556Z,51.00
2018-12-17T00:11:34.102Z,54.60
2018-12-17T00:14:02.280Z,57.83
2018-12-17T00:16:30.496Z,56.97
2018-12-17T00:18:58.676Z,56.80
2018-12-17T00:21:26.857Z,53.10
2018-12-17T00:23:55.093Z,51.30
2018-12-17T00:26:23.272Z,53.77
2018-12-17T00:28:51.444Z,56.67
2018-12-17T00:31:19.667Z,50.77
2018-12-17T00:33:47.856Z,54.43
2018-12-17T00:36:16.032Z,56.57
2018-12-17T00:38:44.255Z,49.13
2018-12-17T00:41:12.481Z,57.00
2018-12-17T00:43:40.747Z,49.40
2018-12-17T00:46:09.042Z,57.77
2018-12-17T00:48:37.333Z,55.27
2018-12-17T00:51:05.520Z,51.53
2018-12-17T00:53:33.733Z,46.33
2018-12-17T00:56:02.012Z,54.50
2018-12-17T00:58:30.244Z,51.77
2018-12-17T01:00:58.428Z,49.87
2018-12-17T01:03:26.704Z,57.03
2018-12-17T01:05:54.928Z,53.63
2018-12-17T01:08:23.111Z,50.60
2018-12-17T01:10:51.304Z,55.57
2018-12-17T01:13:19.496Z,57.70
2018-12-17T01:15:47.720Z,52.83
2018-12-17T01:18:15.908Z,48.20
2018-12-17T01:20:44.083Z,60.87
2018-12-17T01:23:12.312Z,56.70
2018-12-17T01:25:40.484Z,54.43
2018-12-17T01:28:08.657Z,55.33
2018-12-17T01:30:36.881Z,50.97
2018-12-17T01:33:05.213Z,51.67
2018-12-17T01:35:33.528Z,59.80
2018-12-17T01:38:01.709Z,52.67
2018-12-17T01:40:29.909Z,52.63
2018-12-17T01:42:58.124Z,55.10
2018-12-17T01:45:26.288Z,51.77
2018-12-17T01:47:54.504Z,57.57
2018-12-17T01:50:22.668Z,56.30
2018-12-17T01:52:50.888Z,59.83
2018-12-17T01:55:19.073Z,63.13
2018-12-17T01:57:47.360Z,55.97
2018-12-17T02:00:15.680Z,57.97
2018-12-17T02:02:43.937Z,57.07
2018-12-17T02:05:12.312Z,50.97
2018-12-17T02:07:40.549Z,51.63
2018-12-17T02:10:08.844Z,59.00
2018-12-17T02:12:37.151Z,62.93
2018-12-17T02:15:05.602Z,56.50
2018-12-17T02:17:33.827Z,55.97
2018-12-17T02:20:02.151Z,62.50
2018-12-17T02:22:30.424Z,58.40
2018-12-17T02:24:58.653Z,64.37
2018-12-17T02:27:26.836Z,55.90
2018-12-17T02:29:55.056Z,55.13
2018-12-17T02:32:23.245Z,55.57
2018-12-17T02:34:51.460Z,59.00
2018-12-17T02:37:19.648Z,59.97
2018-12-17T02:39:47.860Z,56.00
2018-12-17T02:42:16.052Z,64.27
2018-12-17T02:44:44.273Z,61.73
2018-12-17T02:47:12.495Z,56.70
2018-12-17T02:49:40.688Z,73.13
2018-12-17T02:52:08.908Z,59.63
2018-12-17T02:54:37.210Z,60.23
2018-12-17T02:57:05.480Z,58.17
2018-12-17T02:59:33.832Z,56.47
2018-12-17T03:02:02.223Z,62.60
2018-12-17T03:04:30.497Z,59.73
2018-12-17T03:06:58.725Z,59.93
2018-12-17T03:09:26.909Z,55.13
2018-12-17T03:11:55.124Z,54.33
2018-12-17T03:14:23.334Z,61.77
2018-12-17T03:16:51.561Z,57.23
2018-12-17T03:19:19.741Z,59.33
2018-12-17T03:21:47.933Z,54.93
2018-12-17T03:24:16.159Z,61.93
2018-12-17T03:26:44.414Z,56.57
2018-12-17T03:29:12.587Z,50.20
2018-12-17T03:31:41.110Z,62.00
2018-12-17T03:34:09.365Z,54.37
2018-12-17T03:36:37.596Z,56.40
2018-12-17T03:39:07.099Z,56.43
2018-12-17T03:41:35.520Z,62.67
2018-12-17T03:44:03.874Z,58.97
2018-12-17T03:46:32.083Z,60.57
2018-12-17T03:49:00.271Z,58.80
2018-12-17T03:51:28.484Z,51.80
2018-12-17T03:53:56.754Z,52.90
2018-12-17T03:56:24.968Z,58.53
2018-12-17T03:58:59.266Z,53.60
2018-12-17T04:01:23.360Z,61.30
2018-12-17T04:03:51.637Z,58.00
2018-12-17T04:06:19.825Z,50.10
2018-12-17T04:08:48.022Z,55.07
2018-12-17T04:11:16.252Z,53.50
2018-12-17T04:13:44.439Z,65.27
2018-12-17T04:16:12.709Z,56.20
2018-12-17T04:18:40.932Z,61.77
2018-12-17T04:21:09.279Z,65.80
2018-12-17T04:23:37.465Z,55.47
2018-12-17T04:26:05.709Z,56.70
2018-12-17T04:28:33.934Z,56.40
2018-12-17T04:31:02.123Z,57.07
2018-12-17T04:33:30.510Z,66.13
2018-12-17T04:35:58.780Z,55.37
2018-12-17T04:38:26.982Z,56.67
2018-12-17T04:40:55.252Z,54.40
2018-12-17T04:43:23.476Z,64.50
2018-12-17T04:45:51.703Z,56.10
2018-12-17T04:48:19.994Z,61.83
2018-12-17T04:50:48.295Z,56.20
2018-12-17T04:53:16.516Z,54.80
2018-12-17T04:55:44.693Z,61.60
2018-12-17T04:58:12.932Z,55.20
2018-12-17T05:00:41.116Z,61.93
2018-12-17T05:03:09.313Z,60.37
2018-12-17T05:05:37.568Z,68.70
2018-12-17T05:08:05.863Z,55.53
2018-12-17T05:10:34.252Z,60.67
2018-12-17T05:13:02.448Z,53.30
2018-12-17T05:15:30.996Z,49.80
2018-12-17T05:17:59.215Z,59.37
2018-12-17T05:20:27.405Z,65.97
2018-12-17T05:22:55.656Z,61.33
2018-12-17T05:25:23.876Z,60.50
2018-12-17T05:27:52.112Z,55.43
2018-12-17T05:30:20.395Z,57.37
2018-12-17T05:32:48.638Z,95.40
2018-12-17T05:35:16.860Z,72.77
2018-12-17T05:37:45.041Z,59.33
2018-12-17T05:40:13.308Z,55.53
2018-12-17T05:42:41.532Z,54.07
2018-12-17T05:45:09.857Z,55.97
2018-12-17T05:47:38.032Z,68.33
2018-12-17T05:50:06.493Z,56.90
2018-12-17T05:52:34.726Z,54.50
2018-12-17T05:55:02.954Z,68.27
2018-12-17T05:57:31.144Z,57.60
2018-12-17T05:59:59.341Z,57.53
2018-12-17T06:02:27.575Z,61.63
2018-12-17T06:04:55.781Z,62.00
2018-12-17T06:07:23.962Z,61.43
2018-12-17T06:09:52.184Z,62.83
2018-12-17T06:12:20.361Z,61.10
2018-12-17T06:14:48.621Z,62.17
2018-12-17T06:17:16.852Z,59.70
2018-12-17T06:19:45.084Z,65.93
2018-12-17T06:22:13.300Z,54.53
2018-12-17T06:24:41.479Z,83.03
2018-12-17T06:27:09.696Z,90.80
2018-12-17T06:29:37.933Z,104.20
2018-12-17T06:32:06.207Z,85.47
2018-12-17T06:34:34.493Z,99.30
2018-12-17T06:37:02.662Z,68.77
2018-12-17T06:39:30.841Z,62.40
2018-12-17T06:41:59.064Z,65.87
2018-12-17T06:44:27.269Z,65.80
2018-12-17T06:46:55.529Z,61.83
2018-12-17T06:49:23.759Z,61.87
2018-12-17T06:51:52.613Z,65.50
2018-12-17T06:54:21.592Z,64.30
2018-12-17T06:56:49.809Z,61.87
2018-12-17T06:59:18.105Z,63.70
2018-12-17T07:01:46.876Z,62.37
2018-12-17T07:04:15.129Z,53.27
2018-12-17T07:06:43.304Z,63.63
2018-12-17T07:09:11.544Z,60.70
2018-12-17T07:11:39.756Z,58.93
2018-12-17T07:14:08.029Z,62.40
2018-12-17T07:16:36.263Z,94.27
2018-12-17T07:19:04.585Z,62.97
2018-12-17T07:21:32.779Z,58.73
2018-12-17T07:24:01.161Z,63.73
2018-12-17T07:26:29.382Z,56.17
2018-12-17T07:28:57.560Z,70.33
2018-12-17T07:31:25.768Z,65.30
2018-12-17T07:33:53.959Z,59.90
2018-12-17T07:36:22.164Z,63.13
2018-12-17T07:38:50.509Z,61.13
2018-12-17T07:41:18.685Z,70.33
2018-12-17T07:43:46.896Z,61.53
2018-12-17T07:46:15.109Z,65.80
2018-12-17T07:48:43.289Z,63.27
2018-12-17T07:51:11.514Z,57.10
2018-12-17T07:53:39.736Z,65.13
2018-12-17T07:56:08.028Z,63.87
2018-12-17T07:58:36.261Z,56.33
2018-12-17T08:01:04.436Z,59.57
2018-12-17T08:03:32.658Z,60.87
2018-12-17T08:06:00.851Z,62.27
2018-12-17T08:08:35.196Z,78.47
2018-12-17T08:10:59.224Z,63.17
2018-12-17T08:13:27.529Z,62.87
2018-12-17T08:15:55.747Z,59.17
2018-12-17T08:18:24.733Z,63.67
2018-12-17T08:20:53.177Z,58.03
2018-12-17T08:23:21.364Z,68.50
2018-12-17T08:25:49.621Z,91.37
2018-12-17T08:28:17.900Z,75.33
2018-12-17T08:30:46.625Z,94.63
2018-12-17T08:33:14.806Z,82.17
2018-12-17T08:35:43.052Z,67.73
2018-12-17T08:38:11.246Z,71.93
2018-12-17T08:40:39.469Z,67.63
2018-12-17T08:43:14.408Z,74.90
2018-12-17T08:45:42.655Z,71.10
2018-12-17T08:48:10.859Z,65.53
2018-12-17T08:50:39.076Z,71.67
2018-12-17T08:53:07.413Z,64.20
2018-12-17T08:55:35.616Z,74.73
2018-12-17T08:58:03.948Z,69.20
2018-12-17T09:00:32.300Z,68.00
2018-12-17T09:03:00.473Z,69.30
2018-12-17T09:05:28.712Z,67.80
2018-12-17T09:07:56.913Z,61.73
2018-12-17T09:10:25.128Z,72.03
2018-12-17T09:12:53.321Z,65.63
2018-12-17T09:15:21.669Z,83.43
2018-12-17T09:17:49.864Z,78.30
2018-12-17T09:20:18.304Z,76.10
2018-12-17T09:22:46.497Z,78.73
2018-12-17T09:25:14.668Z,88.83
2018-12-17T09:27:42.884Z,79.73
2018-12-17T09:30:18.053Z,78.43
2018-12-17T09:32:41.484Z,77.43
2018-12-17T09:35:09.965Z,72.13
2018-12-17T09:37:38.192Z,75.43
2018-12-17T09:40:07.056Z,71.97
2018-12-17T09:42:35.232Z,82.10
2018-12-17T09:45:04.396Z,74.67
2018-12-17T09:47:32.584Z,88.17
2018-12-17T09:50:00.812Z,80.03
2018-12-17T09:52:29.005Z,80.20
2018-12-17T09:54:57.223Z,82.50
2018-12-17T09:57:25.426Z,79.33
2018-12-17T09:59:53.653Z,76.10
2018-12-17T10:02:21.872Z,72.27
2018-12-17T10:04:50.060Z,75.83
2018-12-17T10:07:18.456Z,68.63
2018-12-17T10:09:46.689Z,67.33
2018-12-17T10:12:14.900Z,73.90
2018-12-17T10:14:43.136Z,72.97
2018-12-17T10:17:11.348Z,75.50
2018-12-17T10:19:39.576Z,69.23
2018-12-17T10:22:08.222Z,70.10
2018-12-17T10:24:36.506Z,74.10
2018-12-17T10:27:04.821Z,71.07
2018-12-17T10:29:33.000Z,82.20
2018-12-17T10:32:01.677Z,67.70
2018-12-17T10:34:29.908Z,72.73
2018-12-17T10:36:58.089Z,68.13
2018-12-17T10:39:26.312Z,61.27
2018-12-17T10:41:54.484Z,63.40
2018-12-17T10:44:22.712Z,78.47
2018-12-17T10:46:50.928Z,60.50
2018-12-17T10:49:19.124Z,64.00
2018-12-17T10:51:47.332Z,68.37
2018-12-17T10:54:15.512Z,63.13
2018-12-17T10:56:43.814Z,63.73
2018-12-17T10:59:12.041Z,63.03
2018-12-17T11:01:45.577Z,72.23
2018-12-17T11:04:19.713Z,64.23
2018-12-17T11:06:47.945Z,65.00
2018-12-17T11:09:16.265Z,68.83
2018-12-17T11:11:44.463Z,52.93
2018-12-17T11:14:12.682Z,70.10
2018-12-17T11:16:40.904Z,60.40
2018-12-17T11:19:09.087Z,56.83
2018-12-17T11:21:37.260Z,75.60
2018-12-17T11:24:05.484Z,63.90
2018-12-17T11:26:36.633Z,59.80
2018-12-17T11:29:05.051Z,72.00
2018-12-17T11:31:33.264Z,65.47
2018-12-17T11:34:01.489Z,65.47
2018-12-17T11:36:29.710Z,57.90
2018-12-17T11:38:57.914Z,60.40
2018-12-17T11:41:26.098Z,60.13
2018-12-17T11:43:54.309Z,65.73
2018-12-17T11:46:22.561Z,55.37
2018-12-17T11:48:50.740Z,64.03
2018-12-17T11:51:19.001Z,62.63
2018-12-17T11:53:47.177Z,64.47
2018-12-17T11:56:15.385Z,63.00
2018-12-17T11:58:43.592Z,66.57
2018-12-17T12:01:12.428Z,55.93
2018-12-17T12:03:42.437Z,65.33
2018-12-17T12:06:14.233Z,66.23
2018-12-17T12:08:40.856Z,64.37
2018-12-17T12:11:09.098Z,66.10
2018-12-17T12:13:37.264Z,63.87
2018-12-17T12:16:05.534Z,54.57
2018-12-17T12:18:33.709Z,58.70
2018-12-17T12:21:01.980Z,59.07
2018-12-17T12:23:30.221Z,64.93
2018-12-17T12:25:58.410Z,59.07
2018-12-17T12:28:26.590Z,68.63
2018-12-17T12:31:00.480Z,57.67
2018-12-17T12:33:25.015Z,59.27
2018-12-17T12:35:53.260Z,61.37
2018-12-17T12:38:21.433Z,61.90
2018-12-17T12:40:49.680Z,67.00
2018-12-17T12:43:17.892Z,61.77
2018-12-17T12:45:46.153Z,62.90
2018-12-17T12:48:14.328Z,64.40
2018-12-17T12:50:42.507Z,65.97
2018-12-17T12:53:10.732Z,64.13
2018-12-17T12:55:38.959Z,60.17
2018-12-17T12:58:07.159Z,60.83
2018-12-17T13:00:35.352Z,59.80
2018-12-17T13:03:03.696Z,65.70
2018-12-17T13:05:31.896Z,61.83
2018-12-17T13:08:00.123Z,72.93
2018-12-17T13:10:28.308Z,67.47
2018-12-17T13:12:56.484Z,62.53
2018-12-17T13:15:24.705Z,68.40
2018-12-17T13:17:52.987Z,71.37
2018-12-17T13:20:21.215Z,64.70
2018-12-17T13:22:49.420Z,60.93
2018-12-17T13:25:39.641Z,69.20
2018-12-17T13:28:07.927Z,63.73
2018-12-17T13:30:36.452Z,75.53
2018-12-17T13:33:04.628Z,66.83
2018-12-17T13:35:32.807Z,70.07
2018-12-17T13:38:01.036Z,69.70
2018-12-17T13:40:29.217Z,67.10
2018-12-17T13:42:57.428Z,66.83
2018-12-17T13:45:25.621Z,69.10
2018-12-17T13:47:53.853Z,80.20
2018-12-17T13:50:30.174Z,70.70
2018-12-17T13:53:01.736Z,67.13
2018-12-17T13:55:29.958Z,57.17
2018-12-17T13:57:58.179Z,70.17
2018-12-17T14:00:26.388Z,78.97
2018-12-17T14:02:54.632Z,62.13
2018-12-17T14:05:22.936Z,67.73
2018-12-17T14:07:51.135Z,69.80
2018-12-17T14:10:24.524Z,63.93
2018-12-17T14:12:52.708Z,67.87
2018-12-17T14:15:20.933Z,60.57
2018-12-17T14:17:49.120Z,67.27
2018-12-17T14:20:22.572Z,64.53
2018-12-17T14:22:50.765Z,59.20
2018-12-17T14:25:19.000Z,68.10
2018-12-17T14:27:47.180Z,66.07
2018-12-17T14:30:15.360Z,58.73
2018-12-17T14:32:43.585Z,65.90
2018-12-17T14:35:11.839Z,63.63
2018-12-17T14:37:45.236Z,61.80
2018-12-17T14:40:13.544Z,66.07
2018-12-17T14:42:41.759Z,69.50
2018-12-17T14:45:09.865Z,75.87
2018-12-17T14:47:38.176Z,65.63
2018-12-17T14:50:06.517Z,69.03
2018-12-17T14:52:34.708Z,71.03
2018-12-17T14:55:02.892Z,71.87
2018-12-17T14:57:31.125Z,64.37
2018-12-17T14:59:59.374Z,76.87
2018-12-17T15:02:27.560Z,62.53
2018-12-17T15:04:55.743Z,69.93
2018-12-17T15:07:23.961Z,68.17
2018-12-17T15:09:52.181Z,68.60
2018-12-17T15:12:20.391Z,66.33
2018-12-17T15:14:48.576Z,66.13
2018-12-17T15:17:16.800Z,61.13
2018-12-17T15:19:45.129Z,62.47
2018-12-17T15:22:13.405Z,68.00
2018-12-17T15:24:41.661Z,64.50
2018-12-17T15:27:09.993Z,68.00
2018-12-17T15:29:38.244Z,62.90
2018-12-17T15:32:06.529Z,55.93
2018-12-17T15:34:34.735Z,65.77
2018-12-17T15:37:02.916Z,65.23
2018-12-17T15:39:31.129Z,68.80
2018-12-17T15:41:59.348Z,62.90
2018-12-17T15:44:28.918Z,63.17
2018-12-17T15:46:57.260Z,61.70
2018-12-17T15:49:25.504Z,69.20
2018-12-17T15:51:53.714Z,68.43
2018-12-17T15:54:22.176Z,58.17
2018-12-17T15:56:50.380Z,82.43
2018-12-17T15:59:18.697Z,72.60
2018-12-17T16:01:49.981Z,74.50
2018-12-17T16:04:17.137Z,70.03
2018-12-17T16:06:45.376Z,73.37
2018-12-17T16:09:13.579Z,66.93
2018-12-17T16:11:41.820Z,72.13
2018-12-17T16:14:10.057Z,74.43
2018-12-17T16:16:38.285Z,70.37
2018-12-17T16:19:06.473Z,72.30
2018-12-17T16:21:34.660Z,65.30
2018-12-17T16:24:02.909Z,78.70
2018-12-17T16:26:31.103Z,79.30
2018-12-17T16:28:59.267Z,75.10
2018-12-17T16:31:27.484Z,71.07
2018-12-17T16:33:55.716Z,79.43
2018-12-17T16:36:23.926Z,68.63
2018-12-17T16:38:52.140Z,71.33
2018-12-17T16:41:20.376Z,76.30
2018-12-17T16:43:48.592Z,65.00
2018-12-17T16:46:16.772Z,73.33
2018-12-17T16:48:45.003Z,75.17
2018-12-17T16:51:13.213Z,67.33
2018-12-17T16:53:41.456Z,73.43
2018-12-17T16:56:09.649Z,67.50
2018-12-17T16:58:37.829Z,64.07
2018-12-17T17:01:06.180Z,67.67
2018-12-17T17:03:34.396Z,78.40
2018-12-17T17:06:02.633Z,58.20
2018-12-17T17:08:30.817Z,63.57
2018-12-17T17:10:59.004Z,59.00
2018-12-17T17:13:27.223Z,65.10
2018-12-17T17:15:55.425Z,71.40
2018-12-17T17:18:23.612Z,71.27
2018-12-17T17:20:51.829Z,72.23
2018-12-17T17:23:20.144Z,65.80
2018-12-17T17:25:48.380Z,61.23
2018-12-17T17:28:16.567Z,61.40
2018-12-17T17:30:44.795Z,73.80
2018-12-17T17:33:13.037Z,63.63
2018-12-17T17:35:41.248Z,56.57
2018-12-17T17:38:09.441Z,63.60
2018-12-17T17:40:37.704Z,56.47
2018-12-17T17:43:05.976Z,61.43
2018-12-17T17:45:34.161Z,74.27
2018-12-17T17:48:02.545Z,63.57
2018-12-17T17:50:30.744Z,63.63
2018-12-17T17:52:58.964Z,69.40
2018-12-17T17:55:27.238Z,54.87
2018-12-17T17:57:55.448Z,66.90
2018-12-17T18:00:23.669Z,68.83
2018-12-17T18:02:51.848Z,59.87
2018-12-17T18:05:20.164Z,68.03
2018-12-17T18:07:48.493Z,60.70
2018-12-17T18:10:16.673Z,67.60
2018-12-17T18:12:44.885Z,63.97
2018-12-17T18:15:13.225Z,65.37
2018-12-17T18:17:41.403Z,67.53
2018-12-17T18:20:09.854Z,69.53
2018-12-17T18:22:38.047Z,69.00
2018-12-17T18:25:06.512Z,69.50
2018-12-17T18:27:34.733Z,72.67
2018-12-17T18:30:03.153Z,78.13
2018-12-17T18:32:31.363Z,73.07
2018-12-17T18:34:59.660Z,64.73
2018-12-17T18:37:27.880Z,72.50
2018-12-17T18:39:56.116Z,70.40
2018-12-17T18:42:24.343Z,69.23
2018-12-17T18:44:52.656Z,76.97
2018-12-17T18:47:25.619Z,70.97
2018-12-17T18:49:51.172Z,81.10
2018-12-17T18:52:19.413Z,85.27
2018-12-17T18:54:47.627Z,79.33
2018-12-17T18:57:15.799Z,78.50
2018-12-17T18:59:44.041Z,75.13
2018-12-17T19:02:12.440Z,83.87
2018-12-17T19:04:40.684Z,66.53
2018-12-17T19:07:08.876Z,70.23
2018-12-17T19:09:37.133Z,78.27
2018-12-17T19:12:05.321Z,76.77
2018-12-17T19:14:33.663Z,74.80
2018-12-17T19:17:01.909Z,87.17
2018-12-17T19:19:30.084Z,87.13
2018-12-17T19:21:58.327Z,82.37
2018-12-17T19:24:26.564Z,97.67
2018-12-17T19:26:54.849Z,90.60
2018-12-17T19:29:23.092Z,72.90
2018-12-17T19:31:51.286Z,76.27
2018-12-17T19:34:19.559Z,80.77
2018-12-17T19:36:47.873Z,63.33
2018-12-17T19:39:16.064Z,73.67
2018-12-17T19:41:44.297Z,72.17
2018-12-17T19:44:12.473Z,77.30
2018-12-17T19:46:41.714Z,70.33
2018-12-17T19:49:09.955Z,72.27
2018-12-17T19:51:38.141Z,82.30
2018-12-17T19:54:06.328Z,79.57
2018-12-17T19:56:34.567Z,82.63
2018-12-17T19:59:02.749Z,76.30
2018-12-17T20:01:30.937Z,76.20
2018-12-17T20:03:59.178Z,74.03
2018-12-17T20:06:27.377Z,79.37
2018-12-17T20:08:55.597Z,86.93
2018-12-17T20:11:23.792Z,73.50
2018-12-17T20:13:52.171Z,78.40
2018-12-17T20:16:20.360Z,84.00
2018-12-17T20:18:48.667Z,80.87
2018-12-17T20:21:16.881Z,80.10
2018-12-17T20:23:45.080Z,75.80
2018-12-17T20:26:13.304Z,81.97
2018-12-17T20:28:41.480Z,89.67
2018-12-17T20:31:09.736Z,72.23
2018-12-17T20:33:37.960Z,74.37
2018-12-17T20:36:06.165Z,84.37
2018-12-17T20:38:34.371Z,67.40
2018-12-17T20:41:02.604Z,77.37
2018-12-17T20:43:30.853Z,82.27
2018-12-17T20:46:00.030Z,76.57
2018-12-17T20:48:28.216Z,76.57
2018-12-17T20:50:56.442Z,77.87
2018-12-17T20:53:24.636Z,79.20
2018-12-17T20:55:52.848Z,74.33
2018-12-17T20:58:21.043Z,71.97
2018-12-17T21:00:49.256Z,64.77
2018-12-17T21:03:17.452Z,67.00
2018-12-17T21:05:45.728Z,78.07
2018-12-17T21:08:13.960Z,84.87
2018-12-17T21:10:42.161Z,69.57
2018-12-17T21:13:10.384Z,78.53
2018-12-17T21:15:38.577Z,70.37
2018-12-17T21:18:06.768Z,75.70
2018-12-17T21:20:34.998Z,83.03
2018-12-17T21:23:03.204Z,96.67
2018-12-17T21:25:31.431Z,86.03
2018-12-17T21:27:59.600Z,77.50
2018-12-17T21:30:27.832Z,73.30
2018-12-17T21:32:56.060Z,82.90
2018-12-17T21:35:24.280Z,79.93
2018-12-17T21:37:52.508Z,67.90
2018-12-17T21:40:20.684Z,84.80
2018-12-17T21:42:48.915Z,76.27
2018-12-17T21:45:17.094Z,79.50
2018-12-17T21:47:45.336Z,69.83
2018-12-17T21:50:13.613Z,84.87
2018-12-17T21:52:41.792Z,84.63
2018-12-17T21:55:10.027Z,67.07
2018-12-17T21:57:38.207Z,76.40
2018-12-17T22:00:07.052Z,78.83
2018-12-17T22:02:35.365Z,75.03
2018-12-17T22:05:04.020Z,70.40
2018-12-17T22:07:32.251Z,81.07
2018-12-17T22:10:01.083Z,79.90
2018-12-17T22:12:29.424Z,71.80
2018-12-17T22:14:57.655Z,90.70
2018-12-17T22:17:25.897Z,94.50
2018-12-17T22:19:54.087Z,87.67
2018-12-17T22:22:22.320Z,84.13
2018-12-17T22:24:50.612Z,77.87
2018-12-17T22:27:18.788Z,87.90
2018-12-17T22:29:47.088Z,93.03
2018-12-17T22:32:15.304Z,59.40
2018-12-17T22:34:43.504Z,105.33
2018-12-17T22:37:11.706Z,86.50
2018-12-17T22:39:40.016Z,74.23
2018-12-17T22:42:08.238Z,75.87
2018-12-17T22:44:36.553Z,69.30
2018-12-17T22:47:04.868Z,68.57
2018-12-17T22:49:33.204Z,61.73
2018-12-17T22:52:01.449Z,75.90
2018-12-17T22:54:29.713Z,76.83
2018-12-17T22:56:57.924Z,72.67
2018-12-17T22:59:26.111Z,85.47
2018-12-17T23:01:54.448Z,72.30
2018-12-17T23:04:22.669Z,95.30
2018-12-17T23:06:50.914Z,82.10
2018-12-17T23:09:18.092Z,71.30
2018-12-17T23:12:02.770Z,70.77
2018-12-17T23:14:42.012Z,50.70
2018-12-17T23:17:21.329Z,57.40
2018-12-17T23:19:49.817Z,60.63
2018-12-17T23:22:20.108Z,67.93
2018-12-17T23:24:48.440Z,72.33
2018-12-17T23:27:16.648Z,66.03
2018-12-17T23:29:44.896Z,78.80
2018-12-17T23:32:13.176Z,56.13
2018-12-17T23:34:41.353Z,62.03
2018-12-17T23:37:09.664Z,67.77
2018-12-17T23:39:37.839Z,52.90
2018-12-17T23:42:06.196Z,66.80
2018-12-17T23:44:36.572Z,64.17
2018-12-17T23:47:05.004Z,51.47
2018-12-17T23:49:33.224Z,66.10
2018-12-17T23:52:01.412Z,52.90
2018-12-17T23:54:29.580Z,63.27
2018-12-17T23:56:57.818Z,69.17
2018-12-17T23:59:25.988Z,48.57
